Time;durP1;ratioP1;P1;durP2;ratioP2;P2;SDS_P1;SDS_P2;PMS_P1;PMS_P2;Temp;Humidity;BMP_temperature;BMP_pressure;BME280_temperature;BME280_humidity;BME280_pressure;Samples;Min_cycle;Max_cycle;Signal;HPM_P1;HPM_P2
2023/06/06 00:00:30;;;;;;;7.82;4.28;;;17.40;99.90;;;;;;5069808;28;20196;-48
2023/06/06 00:02:56;;;;;;;7.05;4.57;;;17.60;99.90;;;;;;5069479;28;20181;-49
2023/06/06 00:05:25;;;;;;;6.30;4.53;;;17.60;99.90;;;;;;5069942;28;20618;-49
2023/06/06 00:07:52;;;;;;;5.95;4.80;;;17.60;99.90;;;;;;5069623;28;20256;-49
2023/06/06 00:10:18;;;;;;;5.97;4.55;;;17.90;99.90;;;;;;5069902;28;20161;-49
2023/06/06 00:12:45;;;;;;;8.45;4.50;;;17.50;99.90;;;;;;5069894;28;20232;-49
2023/06/06 00:15:12;;;;;;;5.90;4.30;;;18.10;99.90;;;;;;5070271;28;20202;-49
2023/06/06 00:17:39;;;;;;;7.90;5.10;;;17.30;99.90;;;;;;5069803;28;20190;-49
2023/06/06 00:20:08;;;;;;;5.85;4.35;;;17.80;99.90;;;;;;5069816;28;20169;-49
2023/06/06 00:22:35;;;;;;;9.80;4.53;;;17.50;99.90;;;;;;5069671;28;20173;-49
2023/06/06 00:25:01;;;;;;;5.72;4.57;;;17.50;99.90;;;;;;5069746;28;20201;-49
2023/06/06 00:27:26;;;;;;;8.93;4.70;;;17.50;99.90;;;;;;5069648;28;20211;-49
2023/06/06 00:29:52;;;;;;;10.27;4.72;;;;;;;;;;5069774;28;20170;-49
2023/06/06 00:32:18;;;;;;;7.10;5.20;;;17.50;99.90;;;;;;5069586;28;20170;-49
2023/06/06 00:34:43;;;;;;;6.60;5.05;;;17.70;99.90;;;;;;5070196;28;20201;-49
2023/06/06 00:37:09;;;;;;;6.90;4.60;;;17.30;99.90;;;;;;5069586;28;20206;-49
2023/06/06 00:39:34;;;;;;;7.22;4.80;;;17.30;99.90;;;;;;5070359;28;20166;-49
2023/06/06 00:42:00;;;;;;;5.82;5.22;;;17.30;99.90;;;;;;5071261;28;20216;-49
2023/06/06 00:44:25;;;;;;;7.93;4.93;;;17.30;99.90;;;;;;5071252;28;20174;-49
2023/06/06 00:46:51;;;;;;;8.13;5.00;;;17.30;99.90;;;;;;5052812;28;20170;-49
2023/06/06 00:49:18;;;;;;;6.78;5.10;;;17.40;99.90;;;;;;5070304;28;20231;-49
2023/06/06 00:51:45;;;;;;;5.43;4.65;;;17.20;99.90;;;;;;5071565;28;20186;-49
2023/06/06 00:54:13;;;;;;;10.65;5.70;;;17.20;99.90;;;;;;5071694;28;20209;-49
2023/06/06 00:56:39;;;;;;;8.13;5.85;;;17.30;99.90;;;;;;5071103;28;20170;-48
2023/06/06 00:59:06;;;;;;;8.30;5.82;;;17.20;99.90;;;;;;5071041;28;20633;-49
2023/06/06 01:01:34;;;;;;;9.93;5.40;;;17.30;99.90;;;;;;5071332;28;20174;-49
2023/06/06 01:04:02;;;;;;;8.90;5.60;;;17.00;99.90;;;;;;5071243;28;20223;-49
2023/06/06 01:06:33;;;;;;;6.80;5.38;;;17.10;99.90;;;;;;5071268;28;20174;-48
2023/06/06 01:09:05;;;;;;;7.88;5.68;;;17.20;99.90;;;;;;5071268;28;20178;-48
2023/06/06 01:11:40;;;;;;;6.85;5.30;;;17.10;99.90;;;;;;5070963;28;20163;-48
2023/06/06 01:14:16;;;;;;;9.02;5.70;;;16.60;99.90;;;;;;5072932;28;20201;-48
2023/06/06 01:16:42;;;;;;;8.90;5.90;;;16.90;99.90;;;;;;5075365;28;20587;-48
2023/06/06 01:19:16;;;;;;;8.73;5.50;;;17.00;99.90;;;;;;5074968;28;20533;-48
2023/06/06 01:21:42;;;;;;;6.45;4.82;;;16.60;99.90;;;;;;5074999;28;20162;-48
2023/06/06 01:24:08;;;;;;;8.00;5.65;;;16.50;99.90;;;;;;5074824;28;20252;-48
2023/06/06 01:26:34;;;;;;;9.93;6.18;;;16.70;99.90;;;;;;5074798;28;20256;-48
2023/06/06 01:29:00;;;;;;;9.52;5.85;;;16.70;99.90;;;;;;5074720;28;20174;-48
2023/06/06 01:31:31;;;;;;;8.95;5.85;;;17.40;99.90;;;;;;5074481;28;20622;-48
2023/06/06 01:34:09;;;;;;;10.05;5.72;;;16.70;99.90;;;;;;5074234;28;20212;-48
2023/06/06 01:36:48;;;;;;;9.23;6.22;;;16.80;99.90;;;;;;5074628;28;20205;-48
2023/06/06 01:39:18;;;;;;;10.18;6.07;;;16.80;99.90;;;;;;5074868;28;20166;-48
2023/06/06 01:41:45;;;;;;;7.63;5.75;;;16.60;99.90;;;;;;5074739;28;20162;-48
2023/06/06 01:44:12;;;;;;;8.43;6.13;;;16.70;99.90;;;;;;5074791;28;20174;-48
2023/06/06 01:46:39;;;;;;;9.50;6.80;;;16.60;99.90;;;;;;5074156;28;20248;-48
2023/06/06 01:49:06;;;;;;;8.60;6.40;;;16.70;99.90;;;;;;5074025;28;20174;-48
2023/06/06 01:51:31;;;;;;;9.15;6.45;;;16.70;99.90;;;;;;5074044;28;20162;-48
2023/06/06 01:53:58;;;;;;;9.73;5.70;;;16.60;99.90;;;;;;5073903;28;20293;-48
2023/06/06 01:56:25;;;;;;;9.48;5.97;;;16.70;99.90;;;;;;5074076;28;20173;-48
2023/06/06 01:58:52;;;;;;;12.13;6.50;;;16.60;99.90;;;;;;5073891;28;20196;-48
2023/06/06 02:01:17;;;;;;;8.35;6.15;;;16.70;99.90;;;;;;5073942;28;20240;-47
2023/06/06 02:03:43;;;;;;;10.85;6.70;;;16.70;99.90;;;;;;5074343;28;20620;-48
2023/06/06 02:06:09;;;;;;;7.93;6.65;;;16.60;99.90;;;;;;5073815;28;20216;-48
2023/06/06 02:08:34;;;;;;;10.48;5.97;;;16.60;99.90;;;;;;5073634;28;20216;-48
2023/06/06 02:11:00;;;;;;;10.25;6.38;;;16.10;99.90;;;;;;5074014;28;20212;-48
2023/06/06 02:13:26;;;;;;;10.63;5.78;;;16.40;99.90;;;;;;5073641;28;20169;-48
2023/06/06 02:15:52;;;;;;;8.65;6.22;;;17.00;99.90;;;;;;5073663;28;20186;-48
2023/06/06 02:18:17;;;;;;;10.60;7.10;;;16.30;99.90;;;;;;5073573;28;20223;-48
2023/06/06 02:20:43;;;;;;;8.82;6.10;;;16.70;99.90;;;;;;5073957;28;20190;-48
2023/06/06 02:23:09;;;;;;;10.88;6.55;;;16.10;99.90;;;;;;5073513;28;20162;-48
2023/06/06 02:25:37;;;;;;;14.60;6.93;;;16.40;99.90;;;;;;5072762;28;20652;-48
2023/06/06 02:28:03;;;;;;;9.13;6.68;;;16.30;99.90;;;;;;5073374;28;20180;-48
2023/06/06 02:30:30;;;;;;;12.38;6.50;;;16.10;99.90;;;;;;5073671;28;20173;-48
2023/06/06 02:32:56;;;;;;;11.73;6.55;;;16.80;99.90;;;;;;5073310;28;20173;-48
2023/06/06 02:35:22;;;;;;;14.15;7.43;;;15.60;99.90;;;;;;5073306;28;20209;-48
2023/06/06 02:37:47;;;;;;;7.40;6.20;;;16.00;99.90;;;;;;5073488;28;20174;-48
2023/06/06 02:40:13;;;;;;;10.30;7.13;;;16.20;99.90;;;;;;5073570;28;20172;-48
2023/06/06 02:42:39;;;;;;;10.60;6.85;;;16.10;99.90;;;;;;5073483;28;20173;-48
2023/06/06 02:45:06;;;;;;;11.15;6.28;;;15.70;99.90;;;;;;5073365;28;20178;-48
2023/06/06 02:47:32;;;;;;;9.00;6.57;;;15.70;99.90;;;;;;5072998;28;20646;-48
2023/06/06 02:49:57;;;;;;;10.32;6.68;;;15.90;99.90;;;;;;5073183;28;20217;-48
2023/06/06 02:52:24;;;;;;;10.65;6.50;;;15.60;99.90;;;;;;5073003;28;20208;-48
2023/06/06 02:54:50;;;;;;;11.70;7.75;;;15.60;99.90;;;;;;5073058;28;20592;-48
2023/06/06 02:57:16;;;;;;;13.55;7.47;;;16.40;99.90;;;;;;5072849;28;20287;-48
2023/06/06 02:59:42;;;;;;;8.00;7.10;;;16.40;99.90;;;;;;5073203;28;20162;-49
2023/06/06 03:02:09;;;;;;;10.88;6.75;;;15.80;99.90;;;;;;5072676;28;20531;-48
2023/06/06 03:04:35;;;;;;;10.18;7.03;;;15.40;99.90;;;;;;5072686;28;20166;-48
2023/06/06 03:07:01;;;;;;;9.98;6.20;;;16.30;99.90;;;;;;5072523;28;20661;-48
2023/06/06 03:09:29;;;;;;;8.50;6.50;;;15.50;99.90;;;;;;5072626;28;20177;-48
2023/06/06 03:11:55;;;;;;;12.32;7.75;;;15.90;99.90;;;;;;5072472;28;20173;-48
2023/06/06 03:14:21;;;;;;;9.05;7.00;;;16.00;99.90;;;;;;5072456;28;20567;-48
2023/06/06 03:16:51;;;;;;;13.40;6.63;;;15.90;99.90;;;;;;5072497;28;20214;-48
2023/06/06 03:19:16;;;;;;;12.55;7.05;;;15.60;99.90;;;;;;5072312;28;20646;-48
2023/06/06 03:21:43;;;;;;;14.32;6.97;;;15.60;99.90;;;;;;5091391;28;20213;-49
2023/06/06 03:24:09;;;;;;;12.40;7.55;;;15.70;99.90;;;;;;5092973;28;20260;-48
2023/06/06 03:26:34;;;;;;;11.43;8.00;;;15.70;99.90;;;;;;5092765;28;20245;-48
2023/06/06 03:29:00;;;;;;;11.82;8.63;;;15.90;99.90;;;;;;5092403;28;20205;-48
2023/06/06 03:31:29;;;;;;;12.60;7.57;;;15.70;99.90;;;;;;5092376;28;20165;-48
2023/06/06 03:33:55;;;;;;;9.18;7.05;;;15.70;99.90;;;;;;5092531;28;20247;-48
2023/06/06 03:36:20;;;;;;;11.20;7.32;;;15.70;99.90;;;;;;5091978;28;20172;-48
2023/06/06 03:38:46;;;;;;;10.50;8.07;;;15.60;99.90;;;;;;5091759;28;20234;-48
2023/06/06 03:41:12;;;;;;;13.13;7.75;;;15.50;99.90;;;;;;5092623;28;20180;-48
2023/06/06 03:43:38;;;;;;;13.02;7.82;;;15.70;99.90;;;;;;5092271;28;20162;-48
2023/06/06 03:46:04;;;;;;;12.27;8.75;;;15.50;99.90;;;;;;5092594;28;20165;-48
2023/06/06 03:48:29;;;;;;;11.55;7.97;;;15.70;99.90;;;;;;5092281;28;20165;-48
2023/06/06 03:50:55;;;;;;;13.32;8.52;;;15.60;99.90;;;;;;5092155;28;20180;-48
2023/06/06 03:53:21;;;;;;;12.18;7.78;;;15.60;99.90;;;;;;5092136;28;20170;-48
2023/06/06 03:55:46;;;;;;;13.15;8.20;;;15.80;99.90;;;;;;5091920;28;20205;-48
2023/06/06 03:58:16;;;;;;;12.68;8.82;;;15.80;99.90;;;;;;5092336;28;20252;-48
2023/06/06 04:00:44;;;;;;;13.82;8.20;;;15.60;99.90;;;;;;5092467;28;20242;-48
2023/06/06 04:03:10;;;;;;;15.35;7.97;;;15.60;99.90;;;;;;5092213;28;20637;-49
2023/06/06 04:05:36;;;;;;;11.60;7.82;;;15.60;99.90;;;;;;5092241;28;20261;-48
2023/06/06 04:08:02;;;;;;;13.32;8.13;;;15.90;99.90;;;;;;5091782;28;20307;-48
2023/06/06 04:10:28;;;;;;;15.20;8.80;;;15.40;99.90;;;;;;5091724;28;20165;-48
2023/06/06 04:12:54;;;;;;;11.38;7.80;;;15.70;99.90;;;;;;5091812;28;20173;-48
2023/06/06 04:15:19;;;;;;;15.40;8.95;;;15.40;99.90;;;;;;5091690;28;20200;-48
2023/06/06 04:17:45;;;;;;;13.07;8.63;;;15.30;99.90;;;;;;5091812;28;20240;-48
2023/06/06 04:20:11;;;;;;;13.05;8.02;;;15.40;99.90;;;;;;5092297;28;20176;-48
2023/06/06 04:22:38;;;;;;;14.18;8.00;;;15.40;99.90;;;;;;5091694;28;20211;-48
2023/06/06 04:25:04;;;;;;;12.48;7.72;;;15.70;99.90;;;;;;5091826;28;20252;-48
2023/06/06 04:27:31;;;;;;;15.23;8.00;;;15.70;99.90;;;;;;5091792;28;20165;-48
2023/06/06 04:29:57;;;;;;;12.05;8.43;;;16.00;99.90;;;;;;5091428;28;20255;-48
2023/06/06 04:32:24;;;;;;;14.43;8.35;;;15.90;99.90;;;;;;5091376;28;20170;-48
2023/06/06 04:34:57;;;;;;;14.25;8.02;;;16.10;99.90;;;;;;5091341;28;20660;-48
2023/06/06 04:37:23;;;;;;;10.93;7.50;;;16.30;99.90;;;;;;5090741;28;20165;-48
2023/06/06 04:39:52;;;;;;;13.20;8.57;;;16.70;99.90;;;;;;5089413;28;20675;-48
2023/06/06 04:42:19;;;;;;;10.05;7.55;;;16.10;99.90;;;;;;5089379;28;20647;-48
2023/06/06 04:44:46;;;;;;;10.65;7.72;;;16.00;99.90;;;;;;5089358;28;20675;-48
2023/06/06 04:47:12;;;;;;;13.63;7.90;;;16.60;99.90;;;;;;5089785;28;20586;-48
2023/06/06 04:49:39;;;;;;;12.95;7.70;;;16.30;99.90;;;;;;5092565;28;20173;-48
2023/06/06 04:52:11;;;;;;;14.85;7.75;;;16.30;99.90;;;;;;5093717;28;20174;-48
2023/06/06 04:54:38;;;;;;;10.48;7.45;;;16.10;99.90;;;;;;5093544;28;20197;-48
2023/06/06 04:57:08;;;;;;;9.75;7.10;;;16.30;99.90;;;;;;5093385;28;20429;-48
2023/06/06 04:59:35;;;;;;;11.02;7.75;;;16.60;99.90;;;;;;5093636;28;20172;-48
2023/06/06 05:02:03;;;;;;;12.65;7.93;;;16.90;99.90;;;;;;5093483;28;20176;-48
2023/06/06 05:04:31;;;;;;;14.25;7.95;;;;;;;;;;5093100;28;20637;-48
2023/06/06 05:06:57;;;;;;;10.68;7.63;;;;;;;;;;5093304;28;20217;-47
2023/06/06 05:09:23;;;;;;;11.02;8.00;;;16.70;99.90;;;;;;5094659;28;20617;-47
2023/06/06 05:11:51;;;;;;;11.50;8.23;;;17.10;99.90;;;;;;5095048;28;20173;-48
2023/06/06 05:14:17;;;;;;;13.73;8.00;;;17.20;99.90;;;;;;5095217;28;20215;-47
2023/06/06 05:16:46;;;;;;;11.57;7.65;;;16.80;99.90;;;;;;5094858;28;20698;-48
2023/06/06 05:19:14;;;;;;;10.73;7.82;;;17.30;99.90;;;;;;5095265;28;20636;-47
2023/06/06 05:21:40;;;;;;;12.95;7.75;;;17.10;99.90;;;;;;5095547;28;20197;-47
2023/06/06 05:24:06;;;;;;;11.98;6.95;;;17.10;99.90;;;;;;5076758;28;20193;-48
2023/06/06 05:26:31;;;;;;;11.60;8.15;;;17.60;99.90;;;;;;5094840;28;20173;-47
2023/06/06 05:28:57;;;;;;;10.38;7.03;;;17.30;99.90;;;;;;5094828;28;20172;-48
2023/06/06 05:31:23;;;;;;;12.95;7.72;;;17.60;99.90;;;;;;5094969;28;20169;-48
2023/06/06 05:33:48;;;;;;;11.65;7.60;;;17.80;99.90;;;;;;5094868;28;20199;-48
2023/06/06 05:36:14;;;;;;;11.55;7.68;;;17.80;99.90;;;;;;5094672;28;20170;-47
2023/06/06 05:38:39;;;;;;;9.45;7.93;;;17.70;99.90;;;;;;5095026;28;20527;-48
2023/06/06 05:41:05;;;;;;;12.65;7.80;;;17.90;99.90;;;;;;5094819;28;20599;-48
2023/06/06 05:43:33;;;;;;;9.48;7.28;;;17.50;99.90;;;;;;5094764;28;20698;-47
2023/06/06 05:46:01;;;;;;;11.13;7.88;;;17.80;99.90;;;;;;5093118;28;20535;-48
2023/06/06 05:48:26;;;;;;;12.80;7.85;;;17.60;99.90;;;;;;5092869;28;20169;-48
2023/06/06 05:50:52;;;;;;;14.30;8.13;;;17.60;99.90;;;;;;5092350;28;20195;-49
2023/06/06 05:53:17;;;;;;;11.52;7.75;;;17.90;99.90;;;;;;5092662;28;20177;-49
2023/06/06 05:55:43;;;;;;;13.35;7.90;;;;;;;;;;5092370;28;20261;-50
2023/06/06 05:58:09;;;;;;;13.82;8.40;;;18.10;99.90;;;;;;5092541;28;20166;-49
2023/06/06 06:00:35;;;;;;;11.98;8.30;;;18.10;99.90;;;;;;5091371;28;20667;-49
2023/06/06 06:03:01;;;;;;;10.77;7.78;;;18.10;99.90;;;;;;5092172;28;20218;-47
2023/06/06 06:05:28;;;;;;;10.00;7.82;;;18.20;99.90;;;;;;5092307;28;20169;-51
2023/06/06 06:07:55;;;;;;;10.75;8.05;;;18.10;99.90;;;;;;5091895;28;20704;-48
2023/06/06 06:10:21;;;;;;;17.50;8.52;;;18.40;99.90;;;;;;5092106;28;20158;-48
2023/06/06 06:12:47;;;;;;;20.77;9.23;;;18.20;99.90;;;;;;5091441;28;20191;-47
2023/06/06 06:15:13;;;;;;;14.25;8.02;;;18.20;99.90;;;;;;5092415;28;20213;-48
2023/06/06 06:17:38;;;;;;;12.30;7.88;;;17.90;99.90;;;;;;5092411;28;20617;-47
2023/06/06 06:20:08;;;;;;;10.88;8.18;;;18.10;99.90;;;;;;5091985;28;20212;-49
2023/06/06 06:22:37;;;;;;;15.30;8.43;;;18.90;99.90;;;;;;5073895;28;20161;-46
2023/06/06 06:25:12;;;;;;;11.38;8.38;;;18.80;99.90;;;;;;5091734;28;20601;-46
2023/06/06 06:27:38;;;;;;;13.05;8.68;;;18.60;99.90;;;;;;5092501;28;20165;-48
2023/06/06 06:30:05;;;;;;;14.35;8.63;;;18.90;99.90;;;;;;5091658;28;20212;-49
2023/06/06 06:32:34;;;;;;;16.67;7.93;;;18.40;99.90;;;;;;5071625;28;20242;-47
2023/06/06 06:35:01;;;;;;;11.32;7.93;;;;;;;;;;5071513;28;20271;-46
2023/06/06 06:37:29;;;;;;;12.90;8.30;;;18.80;99.90;;;;;;5071417;28;20598;-47
2023/06/06 06:39:55;;;;;;;14.23;8.93;;;;;;;;;;5071299;28;20575;-46
2023/06/06 06:42:21;;;;;;;10.98;8.68;;;19.20;99.90;;;;;;5071505;28;20307;-47
2023/06/06 06:44:47;;;;;;;13.63;8.77;;;18.80;99.90;;;;;;5071499;28;20637;-46
2023/06/06 06:47:13;;;;;;;12.80;8.35;;;;;;;;;;5071240;28;20254;-46
2023/06/06 06:49:41;;;;;;;12.60;8.85;;;18.90;99.90;;;;;;5071553;28;20185;-46
2023/06/06 06:52:08;;;;;;;13.85;8.93;;;19.10;99.90;;;;;;5071380;28;20188;-48
2023/06/06 06:54:44;;;;;;;12.27;8.75;;;19.00;99.90;;;;;;5070978;28;20197;-47
2023/06/06 06:57:10;;;;;;;13.75;8.88;;;;;;;;;;5071453;28;20162;-47
2023/06/06 06:59:36;;;;;;;12.52;8.38;;;19.10;99.90;;;;;;5071018;28;20166;-48
2023/06/06 07:02:02;;;;;;;14.98;9.40;;;19.60;99.90;;;;;;5070736;28;20166;-47
2023/06/06 07:04:28;;;;;;;13.15;7.75;;;19.50;99.90;;;;;;5071230;28;20178;-47
2023/06/06 07:06:54;;;;;;;13.35;9.02;;;19.10;99.90;;;;;;5070619;28;20198;-47
2023/06/06 07:09:20;;;;;;;10.55;8.88;;;19.10;99.90;;;;;;5070597;28;20626;-47
2023/06/06 07:11:46;;;;;;;14.77;8.63;;;19.80;99.90;;;;;;5070333;28;20593;-47
2023/06/06 07:14:11;;;;;;;15.27;9.15;;;19.40;99.90;;;;;;5071007;28;20225;-48
2023/06/06 07:16:38;;;;;;;12.27;8.48;;;19.50;99.90;;;;;;5053246;28;20285;-47
2023/06/06 07:19:03;;;;;;;10.85;8.63;;;19.60;99.90;;;;;;5070598;28;20587;-47
2023/06/06 07:21:29;;;;;;;18.08;8.80;;;19.70;99.90;;;;;;5070319;28;20173;-47
2023/06/06 07:23:55;;;;;;;14.25;9.02;;;19.60;99.90;;;;;;5070343;28;20677;-47
2023/06/06 07:26:21;;;;;;;19.85;9.00;;;19.70;99.90;;;;;;5070640;28;20182;-47
2023/06/06 07:28:47;;;;;;;11.55;8.20;;;19.70;99.90;;;;;;5070311;28;20536;-47
2023/06/06 07:31:14;;;;;;;13.98;9.80;;;19.70;99.90;;;;;;5070309;28;20212;-47
2023/06/06 07:33:40;;;;;;;12.75;9.00;;;20.10;99.90;;;;;;5070748;28;20234;-47
2023/06/06 07:36:07;;;;;;;13.02;8.90;;;19.90;99.90;;;;;;5070368;28;20691;-47
2023/06/06 07:38:33;;;;;;;17.63;8.38;;;20.20;99.90;;;;;;5070158;28;20584;-47
2023/06/06 07:40:58;;;;;;;9.00;8.02;;;19.90;99.90;;;;;;5070206;28;20249;-47
2023/06/06 07:43:24;;;;;;;16.42;9.48;;;20.20;99.90;;;;;;5070182;28;20204;-48
2023/06/06 07:45:50;;;;;;;12.20;8.32;;;20.60;99.90;;;;;;5069977;28;20686;-48
2023/06/06 07:48:16;;;;;;;11.48;8.50;;;20.70;99.90;;;;;;5070153;28;20209;-47
2023/06/06 07:50:41;;;;;;;13.38;9.02;;;20.40;99.90;;;;;;5070382;28;20201;-47
2023/06/06 07:53:08;;;;;;;15.30;8.77;;;20.80;99.90;;;;;;5070428;28;20166;-48
2023/06/06 07:55:35;;;;;;;12.60;8.32;;;20.90;99.90;;;;;;5069913;28;20571;-47
2023/06/06 07:58:01;;;;;;;12.27;8.93;;;;;;;;;;5069777;28;20660;-47
2023/06/06 08:00:27;;;;;;;10.95;8.43;;;20.70;99.90;;;;;;5070096;28;20166;-48
2023/06/06 08:02:53;;;;;;;10.48;7.85;;;20.80;99.90;;;;;;5082443;28;20175;-48
2023/06/06 08:05:18;;;;;;;11.95;8.63;;;21.00;99.90;;;;;;5090122;28;20201;-48
2023/06/06 08:07:44;;;;;;;13.57;8.25;;;21.10;99.90;;;;;;5089774;28;20245;-48
2023/06/06 08:10:10;;;;;;;10.05;8.23;;;21.20;99.90;;;;;;5090612;28;20174;-49
2023/06/06 08:12:36;;;;;;;12.18;8.55;;;21.30;99.90;;;;;;5090307;28;20215;-48
2023/06/06 08:15:03;;;;;;;11.65;8.02;;;21.20;99.90;;;;;;5089752;28;20563;-48
2023/06/06 08:17:29;;;;;;;16.25;8.10;;;20.90;99.90;;;;;;5089761;28;20162;-48
2023/06/06 08:19:55;;;;;;;12.50;8.73;;;21.30;99.90;;;;;;5090087;28;20173;-48
2023/06/06 08:22:20;;;;;;;11.63;8.57;;;21.40;99.90;;;;;;5089849;28;20165;-48
2023/06/06 08:24:46;;;;;;;11.82;8.73;;;21.60;99.90;;;;;;5089129;28;20169;-48
2023/06/06 08:27:11;;;;;;;11.93;8.68;;;21.90;99.90;;;;;;5090374;28;20260;-48
2023/06/06 08:29:37;;;;;;;12.18;8.68;;;22.00;99.90;;;;;;5090322;28;20636;-48
2023/06/06 08:32:04;;;;;;;9.52;7.90;;;21.70;99.90;;;;;;5089635;28;20176;-47
2023/06/06 08:34:29;;;;;;;12.57;8.57;;;21.50;99.90;;;;;;5089916;28;20212;-48
2023/06/06 08:36:55;;;;;;;13.20;8.32;;;21.70;99.90;;;;;;5089699;28;20529;-48
2023/06/06 08:39:21;;;;;;;9.43;7.75;;;21.90;99.90;;;;;;5089689;28;20176;-48
2023/06/06 08:41:54;;;;;;;10.50;7.72;;;21.90;99.90;;;;;;5089554;28;20199;-47
2023/06/06 08:44:21;;;;;;;19.70;8.00;;;21.80;99.90;;;;;;5089653;28;20217;-48
2023/06/06 08:46:50;;;;;;;10.60;7.90;;;22.30;99.90;;;;;;5089720;28;20170;-47
2023/06/06 08:49:20;;;;;;;11.57;8.10;;;22.20;99.90;;;;;;5089582;28;20157;-47
2023/06/06 08:51:48;;;;;;;12.88;7.97;;;22.10;99.90;;;;;;5089417;28;20161;-48
2023/06/06 08:54:14;;;;;;;12.65;7.72;;;22.40;99.90;;;;;;5089431;28;20197;-48
2023/06/06 08:56:44;;;;;;;13.10;7.90;;;22.10;99.90;;;;;;5090052;28;20173;-47
2023/06/06 08:59:10;;;;;;;13.65;8.45;;;22.30;99.90;;;;;;5072011;28;20165;-48
2023/06/06 09:01:37;;;;;;;10.93;8.18;;;22.70;99.90;;;;;;5089547;28;20260;-48
2023/06/06 09:04:04;;;;;;;16.13;8.30;;;22.50;99.90;;;;;;5089484;28;20590;-48
2023/06/06 09:06:32;;;;;;;13.43;8.75;;;22.60;99.90;;;;;;5089332;28;20165;-48
2023/06/06 09:08:57;;;;;;;18.83;8.93;;;22.60;99.90;;;;;;5089642;28;20512;-48
2023/06/06 09:11:23;;;;;;;15.38;9.13;;;22.70;99.90;;;;;;5089410;28;20192;-48
2023/06/06 09:13:49;;;;;;;14.80;8.18;;;22.50;99.90;;;;;;5089359;28;20170;-47
2023/06/06 09:16:15;;;;;;;15.98;9.38;;;22.90;99.90;;;;;;5089555;28;20178;-48
2023/06/06 09:18:43;;;;;;;15.05;9.27;;;22.80;99.90;;;;;;5089716;28;20717;-48
2023/06/06 09:21:12;;;;;;;11.38;8.43;;;22.80;99.90;;;;;;5089697;28;20624;-48
2023/06/06 09:23:38;;;;;;;14.25;8.77;;;22.80;99.90;;;;;;5089597;28;20166;-48
2023/06/06 09:26:17;;;;;;;15.60;9.10;;;22.90;99.90;;;;;;5089245;28;20169;-48
2023/06/06 09:28:43;;;;;;;14.27;9.23;;;;;;;;;;5089041;28;20226;-49
2023/06/06 09:31:25;;;;;;;14.02;9.57;;;22.90;99.90;;;;;;5089573;28;20170;-48
2023/06/06 09:33:54;;;;;;;20.10;8.88;;;22.70;99.90;;;;;;5089093;28;20173;-48
2023/06/06 09:36:25;;;;;;;17.42;9.20;;;23.30;99.90;;;;;;5092953;28;20525;-47
2023/06/06 09:38:51;;;;;;;11.43;8.00;;;23.10;99.90;;;;;;5093038;28;20169;-47
2023/06/06 09:41:18;;;;;;;13.90;8.65;;;23.50;99.90;;;;;;5092612;28;20173;-48
2023/06/06 09:43:43;;;;;;;13.23;8.15;;;23.30;99.90;;;;;;5092673;28;20683;-49
2023/06/06 09:46:14;;;;;;;13.25;8.68;;;23.30;99.90;;;;;;5093126;28;20169;-49
2023/06/06 09:48:39;;;;;;;14.43;9.00;;;23.20;99.90;;;;;;5092621;28;20505;-48
2023/06/06 09:51:05;;;;;;;17.60;9.43;;;23.30;99.90;;;;;;5092548;28;20190;-47
2023/06/06 09:53:31;;;;;;;16.75;9.50;;;23.20;99.90;;;;;;5092250;28;20220;-48
2023/06/06 09:56:03;;;;;;;17.23;8.90;;;23.90;99.90;;;;;;5092451;28;20201;-48
2023/06/06 09:58:32;;;;;;;14.32;8.98;;;24.10;99.90;;;;;;5092520;28;20662;-48
2023/06/06 10:00:58;;;;;;;19.50;9.63;;;23.60;99.90;;;;;;5092420;28;20732;-48
2023/06/06 10:03:25;;;;;;;14.40;7.45;;;23.80;99.90;;;;;;5092342;28;20250;-47
2023/06/06 10:05:51;;;;;;;15.10;8.63;;;23.80;99.90;;;;;;5092296;28;20214;-48
2023/06/06 10:08:19;;;;;;;15.02;8.88;;;24.00;99.90;;;;;;5092086;28;20224;-47
2023/06/06 10:10:46;;;;;;;17.10;9.32;;;23.80;99.90;;;;;;5092163;28;20541;-48
2023/06/06 10:13:22;;;;;;;15.07;7.85;;;23.60;99.90;;;;;;5092385;28;20181;-48
2023/06/06 10:15:49;;;;;;;13.40;8.02;;;23.70;99.90;;;;;;5092005;28;20208;-48
2023/06/06 10:18:15;;;;;;;14.55;8.27;;;23.70;99.90;;;;;;5092200;28;20176;-48
2023/06/06 10:20:45;;;;;;;15.05;8.52;;;24.10;99.90;;;;;;5092060;28;20167;-48
2023/06/06 10:23:11;;;;;;;14.40;9.00;;;23.90;99.90;;;;;;5092333;28;20636;-48
2023/06/06 10:25:37;;;;;;;11.05;8.38;;;24.30;99.90;;;;;;5092213;28;20165;-51
2023/06/06 10:28:27;;;;;;;13.35;8.32;;;24.60;99.90;;;;;;5092142;28;20294;-48
2023/06/06 10:30:57;;;;;;;15.07;8.48;;;24.50;99.90;;;;;;5091781;28;20246;-48
2023/06/06 10:33:26;;;;;;;16.95;7.70;;;24.90;99.90;;;;;;5091606;28;20621;-48
2023/06/06 10:35:57;;;;;;;16.10;8.23;;;24.30;99.90;;;;;;5091640;28;20539;-49
2023/06/06 10:38:22;;;;;;;15.27;9.27;;;24.90;99.90;;;;;;5091940;28;20181;-49
2023/06/06 10:40:52;;;;;;;18.42;8.50;;;24.50;99.90;;;;;;5091531;28;20515;-50
2023/06/06 10:43:37;;;;;;;19.20;9.20;;;24.70;99.90;;;;;;5091847;28;20187;-50
2023/06/06 10:46:03;;;;;;;14.85;8.65;;;25.00;99.90;;;;;;5090980;28;20632;-49
2023/06/06 10:48:39;;;;;;;13.98;8.00;;;25.40;99.90;;;;;;5091461;28;20177;-49
2023/06/06 10:51:07;;;;;;;16.45;8.60;;;25.10;99.90;;;;;;5091424;28;20168;-50
2023/06/06 10:53:32;;;;;;;15.85;8.88;;;24.90;99.90;;;;;;5091274;28;20287;-49
2023/06/06 10:55:58;;;;;;;17.70;9.25;;;25.10;99.90;;;;;;5091130;28;20300;-49
2023/06/06 10:58:33;;;;;;;16.77;8.45;;;25.00;99.90;;;;;;5091305;28;20497;-48
2023/06/06 11:01:01;;;;;;;16.52;7.38;;;25.20;99.90;;;;;;5091153;28;20633;-48
2023/06/06 11:03:35;;;;;;;13.48;7.65;;;25.90;99.90;;;;;;5091356;28;20188;-49
2023/06/06 11:06:00;;;;;;;15.93;7.95;;;25.60;99.90;;;;;;5090705;28;20165;-48
2023/06/06 11:08:46;;;;;;;15.27;7.55;;;25.60;99.90;;;;;;5090875;28;20228;-48
2023/06/06 11:11:15;;;;;;;16.80;7.82;;;25.70;99.90;;;;;;5091140;28;20298;-48
2023/06/06 11:14:06;;;;;;;15.52;8.30;;;25.30;99.90;;;;;;5091300;28;20168;-48
2023/06/06 11:16:38;;;;;;;13.63;7.90;;;25.70;99.90;;;;;;5090937;28;20188;-49
2023/06/06 11:19:12;;;;;;;15.65;7.40;;;25.90;99.90;;;;;;5091089;28;20269;-49
2023/06/06 11:21:39;;;;;;;19.00;7.50;;;25.90;99.90;;;;;;5073199;28;20184;-49
2023/06/06 11:24:05;;;;;;;13.63;8.07;;;25.60;99.90;;;;;;5090347;28;20511;-49
2023/06/06 11:26:34;;;;;;;9.65;7.75;;;25.70;99.90;;;;;;5090652;28;20191;-48
2023/06/06 11:29:01;;;;;;;12.48;7.25;;;26.10;99.90;;;;;;5090603;28;20165;-48
2023/06/06 11:31:27;;;;;;;15.68;7.47;;;26.30;99.90;;;;;;5090820;28;20165;-48
2023/06/06 11:34:03;;;;;;;12.93;7.07;;;26.80;99.90;;;;;;5090533;28;20181;-48
2023/06/06 11:36:29;;;;;;;13.73;6.70;;;26.30;99.90;;;;;;5090513;28;20177;-49
2023/06/06 11:38:58;;;;;;;12.50;6.45;;;25.90;99.90;;;;;;5090586;28;20192;-49
2023/06/06 11:41:24;;;;;;;9.25;6.22;;;26.40;99.90;;;;;;5090417;28;20636;-48
2023/06/06 11:43:51;;;;;;;10.13;5.60;;;26.50;99.90;;;;;;5090384;28;20168;-50
2023/06/06 11:46:17;;;;;;;10.65;5.93;;;26.70;97.90;;;;;;5090446;28;20317;-50
2023/06/06 11:48:43;;;;;;;11.38;5.53;;;26.60;96.90;;;;;;5090168;28;20531;-47
2023/06/06 11:51:13;;;;;;;8.52;4.82;;;26.20;97.30;;;;;;5090667;28;20162;-48
2023/06/06 11:53:39;;;;;;;11.77;6.28;;;26.40;97.40;;;;;;5090698;28;20183;-47
2023/06/06 11:56:06;;;;;;;8.68;5.43;;;26.60;97.50;;;;;;5090428;28;20291;-47
2023/06/06 11:58:34;;;;;;;15.82;5.82;;;26.70;97.80;;;;;;5089716;28;20172;-47
2023/06/06 12:01:03;;;;;;;14.73;6.00;;;26.60;99.30;;;;;;5090189;28;20200;-48
2023/06/06 12:03:31;;;;;;;10.25;5.50;;;26.80;98.80;;;;;;5090068;28;20169;-47
2023/06/06 12:06:04;;;;;;;6.82;4.25;;;26.80;98.00;;;;;;5090293;28;20226;-48
2023/06/06 12:08:34;;;;;;;11.55;4.30;;;26.50;96.20;;;;;;5089834;28;20212;-47
2023/06/06 12:11:26;;;;;;;11.02;4.20;;;26.80;95.00;;;;;;5089812;28;20157;-47
2023/06/06 12:13:53;;;;;;;9.98;5.03;;;27.00;93.90;;;;;;5090031;28;20164;-48
2023/06/06 12:16:27;;;;;;;13.13;4.40;;;27.40;94.40;;;;;;5071933;28;20179;-48
2023/06/06 12:18:56;;;;;;;9.25;3.80;;;27.20;92.50;;;;;;5089835;28;20527;-48
2023/06/06 12:21:22;;;;;;;7.00;4.43;;;27.00;93.00;;;;;;5089911;28;20168;-47
2023/06/06 12:23:48;;;;;;;6.35;3.58;;;27.40;90.10;;;;;;5089994;28;20165;-47
2023/06/06 12:26:16;;;;;;;8.35;3.72;;;27.30;90.30;;;;;;5089766;28;20168;-47
2023/06/06 12:29:01;;;;;;;5.38;4.00;;;27.50;89.00;;;;;;5089958;28;20180;-46
2023/06/06 12:31:34;;;;;;;6.22;3.65;;;27.30;85.90;;;;;;5089863;28;20168;-46
2023/06/06 12:34:00;;;;;;;10.27;4.38;;;27.40;88.70;;;;;;5089579;28;20175;-47
2023/06/06 12:36:26;;;;;;;5.68;3.67;;;27.50;88.50;;;;;;5090024;28;20271;-46
2023/06/06 12:38:58;;;;;;;9.38;4.00;;;27.50;89.00;;;;;;5089777;28;20164;-46
2023/06/06 12:41:35;;;;;;;4.93;3.67;;;28.10;85.40;;;;;;5089697;28;20165;-46
2023/06/06 12:44:06;;;;;;;8.80;4.43;;;27.90;84.40;;;;;;5089527;28;20188;-45